Time;durP1;ratioP1;P1;durP2;ratioP2;P2;SDS_P1;SDS_P2;PMS_P1;PMS_P2;Temp;Humidity;BMP_temperature;BMP_pressure;BME280_temperature;BME280_humidity;BME280_pressure;Samples;Min_cycle;Max_cycle;Signal;HPM_P1;HPM_P2
2022/03/02 00:01:59;;;;;;;20.40;12.10;;;;;;;0.13;56.25;97885.16;109896;1250;69452;-62
2022/03/02 00:04:28;;;;;;;21.30;12.30;;;;;;;0.08;56.57;97882.89;109709;1251;60519;-62
2022/03/02 00:06:58;;;;;;;22.40;13.00;;;;;;;0.04;56.75;97878.70;109832;1250;60531;-62
2022/03/02 00:09:29;;;;;;;21.50;12.80;;;;;;;-0.02;57.02;97877.43;109964;1250;72204;-62
2022/03/02 00:11:58;;;;;;;19.20;10.50;;;;;;;-0.07;57.18;97871.23;109727;1250;68010;-61
2022/03/02 00:14:29;;;;;;;13.40;9.20;;;;;;;-0.10;56.72;97865.98;109677;1253;68529;-61
2022/03/02 00:16:59;;;;;;;16.10;9.70;;;;;;;-0.15;56.73;97860.13;109814;1250;60483;-61
2022/03/02 00:19:29;;;;;;;14.60;9.40;;;;;;;-0.18;56.60;97858.98;109676;1252;60483;-61
2022/03/02 00:21:59;;;;;;;15.20;8.90;;;;;;;-0.20;56.16;97858.34;109800;1251;72588;-62
2022/03/02 00:24:30;;;;;;;8.90;5.80;;;;;;;-0.24;56.86;97857.41;109746;1251;69250;-62
2022/03/02 00:26:59;;;;;;;9.20;6.50;;;;;;;-0.27;55.77;97852.14;109624;1251;68505;-62
2022/03/02 00:29:30;;;;;;;12.00;8.50;;;;;;;-0.29;55.61;97846.89;109780;1250;60531;-62
2022/03/02 00:32:00;;;;;;;8.00;5.70;;;;;;;-0.31;55.22;97849.17;109718;1251;60522;-64
2022/03/02 00:34:30;;;;;;;11.20;6.60;;;;;;;-0.33;54.93;97844.40;109816;1251;72319;-62
2022/03/02 00:36:59;;;;;;;15.20;8.90;;;;;;;-0.35;55.63;97841.53;109809;1249;67931;-63
2022/03/02 00:39:30;;;;;;;10.40;7.70;;;;;;;-0.37;55.72;97841.92;109748;1251;68677;-63
2022/03/02 00:42:00;;;;;;;11.30;7.70;;;;;;;-0.42;56.83;97842.38;109742;1251;60544;-62
2022/03/02 00:44:30;;;;;;;;;;;;;;;-0.45;56.46;97837.66;109815;1251;60566;-61
2022/03/02 00:47:00;;;;;;;11.40;7.00;;;;;;;-0.47;56.55;97835.45;109780;1251;71443;-63
2022/03/02 00:49:34;;;;;;;8.40;5.60;;;;;;;-0.49;56.34;97832.63;109860;1250;67779;-64
2022/03/02 00:52:06;;;;;;;11.80;6.30;;;;;;;-0.54;56.80;97829.29;109662;1251;69466;-63
2022/03/02 00:54:36;;;;;;;6.50;4.50;;;;;;;-0.55;56.66;97826.92;109826;1250;60585;-61
2022/03/02 00:57:06;;;;;;;9.40;5.70;;;;;;;-0.53;55.38;97828.92;109672;1250;60569;-63
2022/03/02 00:59:36;;;;;;;9.80;6.10;;;;;;;-0.50;55.14;97828.36;109800;1251;72451;-63
2022/03/02 01:02:06;;;;;;;14.10;8.90;;;;;;;-0.47;55.23;97826.92;109740;1251;68732;-62
2022/03/02 01:04:36;;;;;;;17.30;9.30;;;;;;;-0.46;56.01;97821.07;109635;1251;68639;-61
2022/03/02 01:07:06;;;;;;;19.80;10.60;;;;;;;-0.47;55.48;97821.76;109716;1251;60541;-62
2022/03/02 01:09:35;;;;;;;10.20;6.50;;;;;;;-0.48;56.63;97815.28;109825;1251;60517;-60
2022/03/02 01:12:05;;;;;;;7.70;5.40;;;;;;;-0.50;55.82;97812.27;109833;1251;72161;-59
2022/03/02 01:14:36;;;;;;;7.20;4.70;;;;;;;-0.53;55.40;97810.25;109644;1251;67625;-63
2022/03/02 01:17:06;;;;;;;6.70;4.50;;;;;;;-0.54;55.32;97809.77;109789;1250;68959;-61
2022/03/02 01:19:38;;;;;;;;;;;;;;;-0.54;55.00;97810.29;109715;1251;60909;-60
2022/03/02 01:22:09;;;;;;;11.00;7.40;;;;;;;-0.53;55.23;97809.23;109783;1251;60449;-62
2022/03/02 01:24:38;;;;;;;;;;;;;;;-0.52;56.11;97808.86;109847;1250;71345;-60
2022/03/02 01:27:08;;;;;;;11.00;7.60;;;;;;;-0.57;58.11;97806.74;109830;1251;68551;-65
2022/03/02 01:29:39;;;;;;;8.90;6.80;;;;;;;-0.58;56.44;97806.26;109676;1251;68608;-64
2022/03/02 01:32:10;;;;;;;9.10;7.10;;;;;;;-0.70;59.14;97804.13;109641;1251;60521;-61
2022/03/02 01:34:41;;;;;;;7.80;5.40;;;;;;;-0.75;58.16;97798.58;109714;1251;60501;-63
2022/03/02 01:37:11;;;;;;;;;;;;;;;-0.75;57.29;97797.40;109745;1250;71561;-61
2022/03/02 01:39:41;;;;;;;13.80;8.90;;;;;;;-0.78;57.15;97798.64;109694;1251;68192;-60
2022/03/02 01:42:11;;;;;;;8.70;5.70;;;;;;;-0.78;58.08;97800.02;109761;1251;68460;-61
2022/03/02 01:44:41;;;;;;;8.80;5.90;;;;;;;-0.77;57.20;97797.59;109772;1251;60592;-61
2022/03/02 01:47:12;;;;;;;;;;;;;;;-0.75;56.80;97792.09;109752;1251;60494;-60
2022/03/02 01:49:43;;;;;;;9.10;5.10;;;;;;;-0.76;57.21;97791.09;109744;1251;71551;-61
2022/03/02 01:52:13;;;;;;;9.40;7.40;;;;;;;-0.76;57.21;97788.01;109774;1251;68022;-63
2022/03/02 01:54:43;;;;;;;9.70;6.70;;;;;;;-0.76;56.92;97787.16;109801;1251;69394;-61
2022/03/02 01:57:14;;;;;;;9.00;5.50;;;;;;;-0.76;56.43;97780.30;109824;1251;60547;-63
2022/03/02 01:59:46;;;;;;;13.30;7.40;;;;;;;-0.75;56.13;97782.33;109745;1251;60502;-61
2022/03/02 02:02:16;;;;;;;8.90;6.00;;;;;;;-0.74;57.09;97778.71;109816;1249;72357;-61
2022/03/02 02:04:46;;;;;;;11.60;6.80;;;;;;;-0.74;57.57;97775.97;109642;1250;67679;-62
2022/03/02 02:07:17;;;;;;;11.00;7.90;;;;;;;-0.75;57.17;97772.39;109780;1251;69461;-62
2022/03/02 02:09:47;;;;;;;12.10;7.90;;;;;;;-0.77;58.17;97773.64;109844;1251;60513;-62
2022/03/02 02:12:17;;;;;;;10.50;7.70;;;;;;;-0.79;58.85;97777.63;109776;1250;61008;-63
2022/03/02 02:14:47;;;;;;;11.30;7.90;;;;;;;-0.82;59.12;97770.69;109625;1251;72320;-62
2022/03/02 02:17:18;;;;;;;10.30;7.70;;;;;;;-0.82;58.40;97771.20;109632;1251;67801;-62
2022/03/02 02:19:48;;;;;;;10.20;6.50;;;;;;;-0.85;59.05;97769.70;109694;1250;68955;-62
2022/03/02 02:22:18;;;;;;;8.90;6.00;;;;;;;-0.84;58.09;97767.64;109637;1251;60939;-63
2022/03/02 02:24:48;;;;;;;;;;;;;;;-0.84;58.73;97765.77;109495;1251;60626;-64
2022/03/02 02:27:18;;;;;;;8.60;4.70;;;;;;;-0.84;57.98;97764.40;109641;1251;71426;-61
2022/03/02 02:29:49;;;;;;;10.10;7.20;;;;;;;-0.83;57.55;97761.98;109736;1250;68687;-61
2022/03/02 02:32:19;;;;;;;12.30;8.50;;;;;;;-0.85;57.62;97763.20;109578;1251;68569;-61
2022/03/02 02:34:50;;;;;;;7.80;6.10;;;;;;;-0.84;57.42;97760.80;109532;1251;60619;-62
2022/03/02 02:37:20;;;;;;;9.70;7.40;;;;;;;-0.85;58.86;97755.52;109754;1251;60556;-61
2022/03/02 02:39:58;;;;;;;9.80;6.60;;;;;;;-0.87;58.82;97750.27;109655;1251;72187;-62
2022/03/02 02:42:28;;;;;;;8.80;7.10;;;;;;;-0.89;58.59;97752.50;109609;1251;68594;-65
2022/03/02 02:44:59;;;;;;;7.80;5.90;;;;;;;-0.95;59.50;97751.63;109303;1249;691878;-65
2022/03/02 02:47:30;;;;;;;8.80;6.10;;;;;;;-0.96;57.99;97751.83;109649;1251;60508;-63
2022/03/02 02:49:59;;;;;;;11.70;7.60;;;;;;;-1.02;58.98;97751.42;109712;1250;60496;-62
2022/03/02 02:52:37;;;;;;;7.50;5.90;;;;;;;-1.07;59.19;97748.45;109792;1250;71642;-61
2022/03/02 02:55:13;;;;;;;8.20;5.50;;;;;;;-1.11;58.65;97752.30;109757;1250;67813;-63
2022/03/02 02:57:44;;;;;;;9.20;5.90;;;;;;;-1.13;58.18;97749.09;109636;1251;69416;-63
2022/03/02 03:00:16;;;;;;;9.20;7.00;;;;;;;-1.18;58.42;97746.63;109624;1251;60481;-63
2022/03/02 03:02:49;;;;;;;9.60;6.60;;;;;;;-1.26;59.17;97746.79;109804;1251;60503;-61
2022/03/02 03:05:23;;;;;;;10.80;7.50;;;;;;;-1.37;60.36;97748.05;109638;1251;71598;-61
2022/03/02 03:07:54;;;;;;;12.80;8.30;;;;;;;-1.48;60.40;97748.94;109666;1250;68447;-61
2022/03/02 03:10:25;;;;;;;12.10;7.80;;;;;;;-1.60;61.21;97750.20;109774;1251;69106;-62
2022/03/02 03:12:55;;;;;;;12.80;9.20;;;;;;;-1.67;61.51;97749.45;109817;1251;60545;-61
2022/03/02 03:15:25;;;;;;;15.80;9.90;;;;;;;-1.81;63.77;97745.11;109659;1251;60557;-62
2022/03/02 03:17:55;;;;;;;;;;;;;;;-1.86;64.71;97745.04;109826;1250;71383;-60
2022/03/02 03:20:28;;;;;;;16.50;11.30;;;;;;;-1.90;63.99;97746.46;109725;1251;68625;-61
2022/03/02 03:22:58;;;;;;;12.90;9.30;;;;;;;-1.94;64.46;97741.41;109805;1251;69387;-62
2022/03/02 03:25:29;;;;;;;16.60;10.20;;;;;;;-1.97;65.00;97739.45;109638;1251;60549;-61
2022/03/02 03:27:58;;;;;;;;;;;;;;;-2.00;64.78;97739.30;109871;1251;60487;-62
2022/03/02 03:30:28;;;;;;;14.60;9.50;;;;;;;-2.00;64.26;97738.12;109805;1250;72327;-61
2022/03/02 03:33:02;;;;;;;8.50;6.20;;;;;;;-2.02;64.10;97730.45;109696;1251;68560;-63
2022/03/02 03:35:33;;;;;;;11.70;8.10;;;;;;;-2.00;64.12;97735.21;109694;1251;67588;-61
2022/03/02 03:38:02;;;;;;;12.90;9.80;;;;;;;-2.01;64.60;97732.15;109699;1251;60546;-62
2022/03/02 03:40:32;;;;;;;;;;;;;;;-2.01;65.34;97732.34;109809;1250;60490;-62
2022/03/02 03:43:03;;;;;;;13.00;9.30;;;;;;;-2.02;64.68;97731.14;109783;1250;71633;-62
2022/03/02 03:45:32;;;;;;;10.90;7.40;;;;;;;-1.98;63.58;97732.60;109695;1251;67659;-62
2022/03/02 03:48:02;;;;;;;7.30;5.90;;;;;;;-1.94;62.84;97729.46;109616;1251;68845;-64
2022/03/02 03:50:32;;;;;;;;;;;;;;;-1.90;62.17;97728.02;109809;1250;60499;-62
2022/03/02 03:53:03;;;;;;;9.50;6.90;;;;;;;-1.85;61.94;97723.66;109756;1251;61743;-63
2022/03/02 03:55:33;;;;;;;9.30;6.10;;;;;;;-1.84;61.98;97719.39;109725;1250;72186;-63
2022/03/02 03:58:03;;;;;;;8.30;5.20;;;;;;;-1.84;61.61;97715.95;109527;1253;67952;-61
2022/03/02 04:00:34;;;;;;;11.60;9.30;;;;;;;-1.83;61.39;97710.98;109798;1250;69374;-61
2022/03/02 04:03:05;;;;;;;15.20;10.90;;;;;;;-1.84;62.20;97708.28;109567;1251;60605;-63
2022/03/02 04:05:35;;;;;;;15.50;10.90;;;;;;;-1.88;64.91;97707.83;109734;1251;60870;-64
2022/03/02 04:08:05;;;;;;;17.20;10.50;;;;;;;-1.90;63.80;97703.24;109994;1250;71551;-63
2022/03/02 04:10:35;;;;;;;18.10;11.90;;;;;;;-1.92;64.29;97702.95;109759;1251;69201;-63
2022/03/02 04:13:05;;;;;;;20.60;11.70;;;;;;;-1.94;64.27;97702.31;109753;1251;69312;-62
2022/03/02 04:15:37;;;;;;;12.40;10.00;;;;;;;-1.98;64.85;97700.34;109807;1250;60499;-63
2022/03/02 04:18:07;;;;;;;16.30;11.30;;;;;;;-2.00;64.54;97696.45;109733;1250;60475;-63
2022/03/02 04:20:37;;;;;;;12.30;9.50;;;;;;;-2.05;65.76;97697.36;109792;1250;72168;-62
2022/03/02 04:23:11;;;;;;;15.40;10.40;;;;;;;-2.10;65.91;97694.90;109843;1250;68438;-65
2022/03/02 04:25:41;;;;;;;12.50;8.90;;;;;;;-2.13;66.30;97690.85;109797;1250;68938;-64
2022/03/02 04:28:10;;;;;;;9.00;7.10;;;;;;;-2.12;64.51;97688.96;109691;1250;60575;-62
2022/03/02 04:30:40;;;;;;;9.00;6.80;;;;;;;-2.10;63.40;97686.19;109793;1250;60494;-61
2022/03/02 04:33:10;;;;;;;14.40;8.70;;;;;;;-2.09;63.68;97684.96;109748;1250;71380;-62
2022/03/02 04:35:41;;;;;;;10.20;7.50;;;;;;;-2.11;64.61;97682.11;109637;1251;67578;-61
2022/03/02 04:38:10;;;;;;;;;;;;;;;-2.11;64.22;97683.66;109654;1251;67695;-64
2022/03/02 04:40:39;;;;;;;5.90;4.90;;;;;;;-2.11;63.46;97679.72;109823;1250;60502;-62
2022/03/02 04:43:09;;;;;;;12.70;8.90;;;;;;;-2.10;64.13;97676.79;109580;1251;60548;-63
2022/03/02 04:45:39;;;;;;;17.60;12.60;;;;;;;-2.10;64.62;97672.18;109853;1250;72366;-64
2022/03/02 04:48:09;;;;;;;40.90;23.80;;;;;;;-2.12;67.05;97671.71;109781;1250;68609;-65
2022/03/02 04:50:38;;;;;;;34.20;21.60;;;;;;;-2.15;68.40;97672.61;109777;1250;68949;-62
2022/03/02 04:53:08;;;;;;;26.10;15.40;;;;;;;-2.15;66.38;97672.79;109674;1250;60569;-61
2022/03/02 04:55:38;;;;;;;19.60;12.40;;;;;;;-2.13;64.92;97667.80;109793;1250;60477;-61
2022/03/02 04:58:07;;;;;;;16.30;10.10;;;;;;;-2.13;63.99;97661.47;109821;1250;72397;-61
2022/03/02 05:00:37;;;;;;;16.40;10.00;;;;;;;-2.11;63.76;97664.02;109855;1250;68463;-61
2022/03/02 05:03:07;;;;;;;11.70;7.70;;;;;;;-2.10;63.39;97665.02;109782;1250;69257;-60
2022/03/02 05:05:38;;;;;;;11.60;7.50;;;;;;;-2.09;63.30;97665.33;109770;1251;60545;-60
2022/03/02 05:08:08;;;;;;;11.00;7.80;;;;;;;-2.06;62.99;97669.39;109808;1250;60556;-60
2022/03/02 05:10:38;;;;;;;11.90;8.40;;;;;;;-2.03;63.04;97669.33;109826;1250;71659;-62
2022/03/02 05:13:07;;;;;;;14.50;10.50;;;;;;;-1.96;63.50;97673.15;109901;1250;68490;-62
2022/03/02 05:15:37;;;;;;;12.70;8.30;;;;;;;-1.97;64.32;97670.08;109739;1250;69462;-61
2022/03/02 05:18:07;;;;;;;17.30;11.80;;;;;;;-1.94;63.54;97668.48;109745;1250;60477;-59
2022/03/02 05:20:37;;;;;;;25.30;13.20;;;;;;;-1.96;65.95;97669.36;109742;1249;60506;-63
2022/03/02 05:23:06;;;;;;;20.10;12.50;;;;;;;-1.95;64.61;97664.91;109893;1250;71401;-61
2022/03/02 05:25:37;;;;;;;14.30;10.60;;;;;;;-1.94;64.56;97662.00;109944;1249;67966;-61
2022/03/02 05:28:06;;;;;;;13.30;8.20;;;;;;;-1.93;64.26;97663.35;109886;1249;68444;-60
2022/03/02 05:30:35;;;;;;;16.20;11.50;;;;;;;-1.92;63.16;97662.63;109753;1250;60512;-61
2022/03/02 05:33:05;;;;;;;22.40;14.00;;;;;;;-1.90;63.46;97664.46;109795;1250;60461;-62
2022/03/02 05:35:35;;;;;;;18.90;12.30;;;;;;;-1.89;63.89;97669.59;109787;1250;71821;-61
2022/03/02 05:38:04;;;;;;;23.10;14.50;;;;;;;-1.89;63.89;97670.61;109912;1250;67823;-62
2022/03/02 05:40:34;;;;;;;31.40;16.50;;;;;;;-1.90;64.03;97667.71;109559;1250;69475;-63
2022/03/02 05:43:03;;;;;;;33.50;18.20;;;;;;;-1.90;63.44;97669.23;109881;1250;60504;-61
2022/03/02 05:45:34;;;;;;;28.70;16.80;;;;;;;-1.91;63.72;97666.87;109788;1250;60485;-61
2022/03/02 05:48:04;;;;;;;31.80;19.30;;;;;;;-1.90;63.81;97663.11;109948;1250;71570;-61
2022/03/02 05:50:33;;;;;;;41.50;23.50;;;;;;;-1.90;64.35;97663.77;109896;1250;68561;-62
2022/03/02 05:53:08;;;;;;;34.30;17.00;;;;;;;-1.92;65.78;97664.16;109798;1250;69816;-64
2022/03/02 05:55:37;;;;;;;24.00;15.80;;;;;;;-1.89;64.12;97664.30;109874;1250;60502;-62
2022/03/02 05:58:07;;;;;;;26.30;13.70;;;;;;;-1.88;63.90;97664.27;109740;1250;60491;-62
2022/03/02 06:00:37;;;;;;;34.60;19.60;;;;;;;-1.87;64.24;97670.39;109762;1250;72784;-62
2022/03/02 06:03:06;;;;;;;29.20;17.90;;;;;;;-1.91;67.35;97674.74;109930;1249;68152;-62
2022/03/02 06:05:36;;;;;;;29.30;17.00;;;;;;;-1.90;66.78;97680.20;109900;1250;68660;-61
2022/03/02 06:08:07;;;;;;;27.20;15.90;;;;;;;-1.90;66.54;97680.55;109855;1250;60585;-62
2022/03/02 06:10:37;;;;;;;21.10;12.70;;;;;;;-1.86;65.96;97679.61;109845;1250;60515;-61
2022/03/02 06:13:07;;;;;;;17.70;11.20;;;;;;;-1.77;64.61;97680.45;109871;1250;72370;-61
2022/03/02 06:15:36;;;;;;;21.40;13.30;;;;;;;-1.69;65.65;97678.08;109846;1250;68603;-63
2022/03/02 06:18:06;;;;;;;14.70;10.20;;;;;;;-1.62;65.65;97682.36;109845;1250;68648;-62
2022/03/02 06:20:36;;;;;;;18.50;13.00;;;;;;;-1.54;65.50;97679.31;109851;1250;60519;-62
2022/03/02 06:23:05;;;;;;;19.20;14.40;;;;;;;-1.47;64.89;97679.16;109896;1250;60494;-62
2022/03/02 06:25:35;;;;;;;23.60;16.00;;;;;;;-1.39;65.41;97684.48;109726;1250;72362;-62
2022/03/02 06:28:04;;;;;;;32.90;20.90;;;;;;;-1.31;64.47;97686.17;109926;1249;67855;-62
2022/03/02 06:30:34;;;;;;;30.00;17.80;;;;;;;-1.22;64.52;97687.71;109933;1248;69846;-64
2022/03/02 06:33:03;;;;;;;26.20;17.40;;;;;;;-1.14;64.44;97689.08;109667;1250;60579;-61
2022/03/02 06:35:32;;;;;;;22.50;16.30;;;;;;;-1.06;64.24;97687.34;109649;1250;60452;-61
2022/03/02 06:38:02;;;;;;;18.50;12.40;;;;;;;-0.96;63.85;97685.77;109649;1250;72423;-60
2022/03/02 06:40:32;;;;;;;19.10;12.80;;;;;;;-0.88;63.80;97689.02;109822;1250;67928;-60
2022/03/02 06:43:07;;;;;;;22.10;13.20;;;;;;;-0.81;63.57;97682.68;109836;1250;70187;-61
2022/03/02 06:45:56;;;;;;;16.90;10.50;;;;;;;-0.73;63.31;97683.52;109852;1250;60546;-61
2022/03/02 06:48:32;;;;;;;17.60;12.80;;;;;;;-0.62;62.86;97681.04;109836;1250;60433;-62
2022/03/02 06:51:01;;;;;;;18.10;11.00;;;;;;;-0.49;62.25;97683.46;109946;1250;71800;-63
2022/03/02 06:53:35;;;;;;;15.60;9.70;;;;;;;-0.35;61.57;97682.95;109837;1250;68651;-63
2022/03/02 06:56:06;;;;;;;15.50;10.80;;;;;;;-0.19;61.08;97677.93;109815;1250;68469;-60
2022/03/02 06:58:45;;;;;;;16.80;11.30;;;;;;;-0.04;60.20;97675.31;109809;1250;60538;-60
2022/03/02 07:01:24;;;;;;;14.40;11.00;;;;;;;0.13;59.89;97676.91;109914;1250;60487;-62
2022/03/02 07:03:57;;;;;;;14.80;11.00;;;;;;;0.34;59.47;97676.17;109777;1250;72388;-61
2022/03/02 07:06:28;;;;;;;18.60;11.60;;;;;;;0.53;59.21;97677.84;109863;1250;68626;-61
2022/03/02 07:08:57;;;;;;;14.60;11.60;;;;;;;0.70;58.16;97675.98;109625;1250;68620;-61
2022/03/02 07:11:26;;;;;;;21.20;14.70;;;;;;;0.85;57.65;97671.44;109780;1250;61043;-62
2022/03/02 07:14:00;;;;;;;22.00;12.80;;;;;;;0.96;57.37;97672.65;109785;1249;60520;-63
2022/03/02 07:16:30;;;;;;;17.10;13.70;;;;;;;1.11;57.22;97669.80;109750;1250;71794;-61
2022/03/02 07:18:59;;;;;;;22.40;13.20;;;;;;;1.20;56.58;97669.14;109789;1250;68708;-61
2022/03/02 07:21:29;;;;;;;18.90;12.50;;;;;;;1.46;56.51;97668.67;109730;1250;69552;-61
2022/03/02 07:24:19;;;;;;;18.50;13.50;;;;;;;1.81;55.72;97669.41;109631;1251;60480;-62
2022/03/02 07:26:57;;;;;;;18.40;13.50;;;;;;;2.33;54.69;97662.65;109591;1249;60579;-60
2022/03/02 07:29:28;;;;;;;13.80;10.90;;;;;;;3.02;52.79;97661.45;109765;1250;71729;-63
2022/03/02 07:31:57;;;;;;;17.80;10.90;;;;;;;3.51;51.61;97659.70;109637;1250;67731;-62
2022/03/02 07:34:31;;;;;;;15.20;9.20;;;;;;;3.94;49.73;97651.54;109731;1250;68733;-64
2022/03/02 07:37:00;;;;;;;10.40;7.60;;;;;;;4.38;48.71;97652.55;109683;1250;60669;-63
2022/03/02 07:39:30;;;;;;;11.60;8.90;;;;;;;4.98;47.41;97653.63;109848;1250;60484;-61
2022/03/02 07:42:00;;;;;;;13.60;9.90;;;;;;;5.22;44.31;97647.48;109595;1251;70791;-61
2022/03/02 07:44:29;;;;;;;9.60;7.40;;;;;;;5.40;45.48;97648.02;109698;1250;68157;-61
2022/03/02 07:46:58;;;;;;;9.50;6.50;;;;;;;6.12;44.54;97637.88;109650;1251;70904;-62
2022/03/02 07:49:29;;;;;;;7.90;7.00;;;;;;;6.67;42.83;97641.23;109856;1250;60573;-63
2022/03/02 07:52:01;;;;;;;7.40;6.10;;;;;;;7.09;42.03;97640.03;109779;1250;60576;-63
2022/03/02 07:54:34;;;;;;;8.70;6.90;;;;;;;7.54;40.30;97633.30;109798;1250;71797;-63
2022/03/02 07:57:06;;;;;;;8.90;6.90;;;;;;;7.87;39.79;97634.20;109858;1250;68846;-61
2022/03/02 07:59:39;;;;;;;8.40;7.20;;;;;;;7.86;38.56;97633.73;109805;1250;69471;-62
2022/03/02 08:02:12;;;;;;;8.00;6.50;;;;;;;7.83;39.25;97629.77;109714;1250;60585;-62
2022/03/02 08:04:42;;;;;;;7.80;6.40;;;;;;;7.86;38.18;97629.77;109830;1250;60507;-62
2022/03/02 08:07:11;;;;;;;;;;;;;;;7.77;38.81;97623.17;109779;1250;72378;-64
2022/03/02 08:09:41;;;;;;;8.90;6.40;;;;;;;7.83;37.64;97627.48;109803;1250;68044;-63
2022/03/02 08:12:12;;;;;;;8.60;6.50;;;;;;;7.64;37.54;97623.74;109759;1250;68683;-64
2022/03/02 08:14:42;;;;;;;6.10;5.50;;;;;;;7.05;36.92;97622.39;109796;1250;60478;-62
2022/03/02 08:17:12;;;;;;;7.10;6.10;;;;;;;6.84;38.02;97622.13;109739;1250;60579;-63
2022/03/02 08:19:43;;;;;;;5.90;5.00;;;;;;;7.31;38.47;97618.53;109697;1250;70801;-64
2022/03/02 08:22:19;;;;;;;5.10;3.80;;;;;;;7.96;37.36;97615.77;109862;1250;68552;-63
2022/03/02 08:25:02;;;;;;;7.30;5.00;;;;;;;8.48;37.03;97617.40;109694;1251;69517;-61
2022/03/02 08:27:33;;;;;;;8.70;5.90;;;;;;;8.94;36.63;97617.30;109836;1249;60562;-64
2022/03/02 08:30:06;;;;;;;7.60;5.10;;;;;;;9.43;35.29;97615.92;109842;1250;60467;-61
2022/03/02 08:32:40;;;;;;;8.70;5.70;;;;;;;9.70;35.90;97614.17;109792;1250;71588;-62
2022/03/02 08:35:11;;;;;;;5.50;4.70;;;;;;;10.20;34.90;97608.56;109730;1250;67707;-62
2022/03/02 08:37:41;;;;;;;6.30;5.30;;;;;;;10.20;32.33;97615.38;109719;1249;68624;-62
2022/03/02 08:40:12;;;;;;;6.50;4.70;;;;;;;9.84;32.67;97609.23;109832;1250;60543;-64
2022/03/02 08:42:41;;;;;;;5.60;4.40;;;;;;;10.07;33.44;97605.25;109770;1249;60556;-64
2022/03/02 08:45:11;;;;;;;4.80;4.30;;;;;;;10.19;32.98;97604.10;109722;1251;72386;-60
2022/03/02 08:47:40;;;;;;;5.90;4.80;;;;;;;10.11;33.13;97601.84;109809;1249;69950;-63
2022/03/02 08:50:11;;;;;;;6.30;5.40;;;;;;;9.55;32.06;97600.36;109862;1250;68409;-63
2022/03/02 08:52:41;;;;;;;6.80;5.10;;;;;;;9.44;33.66;97598.45;109730;1250;60503;-63
2022/03/02 08:55:11;;;;;;;6.90;5.60;;;;;;;9.65;33.15;97596.57;109984;1250;60430;-63
2022/03/02 08:57:42;;;;;;;6.00;5.40;;;;;;;9.73;32.90;97595.19;109882;1250;72381;-64
2022/03/02 09:00:14;;;;;;;6.30;4.80;;;;;;;9.73;32.82;97592.39;109905;1250;67662;-63
2022/03/02 09:02:47;;;;;;;7.40;5.90;;;;;;;9.68;32.69;97591.50;109856;1250;68721;-63
2022/03/02 09:05:16;;;;;;;9.10;6.80;;;;;;;9.62;33.29;97589.66;109656;1251;60564;-62
2022/03/02 09:07:46;;;;;;;5.80;5.20;;;;;;;9.52;33.16;97586.30;109811;1250;60576;-63
2022/03/02 09:10:15;;;;;;;4.50;3.70;;;;;;;9.61;32.88;97586.39;109837;1249;72614;-65
2022/03/02 09:12:45;;;;;;;4.40;3.70;;;;;;;9.65;32.89;97582.81;109708;1250;67817;-62
2022/03/02 09:15:16;;;;;;;6.00;4.30;;;;;;;9.62;32.43;97583.16;109843;1249;69969;-61
2022/03/02 09:17:55;;;;;;;5.30;4.10;;;;;;;9.49;31.89;97579.54;109901;1250;60570;-63
2022/03/02 09:20:30;;;;;;;6.20;4.90;;;;;;;9.07;32.53;97579.83;109907;1249;60501;-63
2022/03/02 09:23:06;;;;;;;6.20;4.30;;;;;;;8.86;33.32;97580.12;109865;1249;71724;-62
2022/03/02 09:25:38;;;;;;;9.30;6.20;;;;;;;8.74;33.20;97580.21;109669;1250;68096;-63
2022/03/02 09:28:10;;;;;;;8.50;5.00;;;;;;;7.82;33.66;97573.77;109751;1249;68649;-61
2022/03/02 09:30:40;;;;;;;6.40;4.90;;;;;;;7.75;34.19;97573.67;109914;1249;60556;-63
2022/03/02 09:33:14;;;;;;;7.30;4.70;;;;;;;7.41;35.03;97570.77;109675;1250;60502;-62
2022/03/02 09:35:45;;;;;;;6.80;4.90;;;;;;;7.13;35.78;97570.30;109822;1249;72386;-62
2022/03/02 09:38:18;;;;;;;5.60;4.40;;;;;;;7.18;35.59;97567.95;109876;1249;67806;-63
2022/03/02 09:40:50;;;;;;;7.30;5.40;;;;;;;7.19;35.65;97569.13;109543;1251;69494;-63
2022/03/02 09:43:24;;;;;;;5.90;4.00;;;;;;;7.19;35.61;97567.34;109703;1250;60598;-62
2022/03/02 09:45:58;;;;;;;4.70;3.80;;;;;;;7.88;35.47;97560.71;109829;1250;60506;-63
2022/03/02 09:48:46;;;;;;;4.30;3.40;;;;;;;9.05;34.53;97557.70;109786;1250;72583;-63
2022/03/02 09:51:23;;;;;;;5.10;4.10;;;;;;;10.49;32.28;97549.60;109703;1250;68727;-63
2022/03/02 09:53:54;;;;;;;7.90;5.90;;;;;;;11.76;30.04;97545.40;109918;1250;68534;-63
2022/03/02 09:56:24;;;;;;;6.30;5.20;;;;;;;12.44;28.80;97550.22;109767;1250;60564;-63
2022/03/02 09:58:53;;;;;;;6.60;5.10;;;;;;;12.18;28.03;97553.63;109904;1250;60576;-64
2022/03/02 10:01:26;;;;;;;7.00;4.70;;;;;;;11.96;28.92;97551.81;109886;1250;72468;-63
2022/03/02 10:03:58;;;;;;;8.70;6.50;;;;;;;11.46;28.81;97553.73;109847;1250;68581;-63
2022/03/02 10:06:28;;;;;;;9.60;6.60;;;;;;;10.29;29.82;97554.26;109766;1250;69531;-63
2022/03/02 10:09:01;;;;;;;7.10;5.10;;;;;;;9.60;30.90;97553.73;109792;1250;60502;-64
2022/03/02 10:11:36;;;;;;;4.10;3.20;;;;;;;9.05;31.17;97548.69;109801;1250;60524;-63
2022/03/02 10:14:05;;;;;;;4.30;3.30;;;;;;;8.99;31.43;97540.69;109750;1250;72335;-62
2022/03/02 10:16:42;;;;;;;4.10;3.30;;;;;;;8.97;31.99;97541.16;109792;1250;67850;-63
2022/03/02 10:19:33;;;;;;;3.80;3.40;;;;;;;9.06;32.16;97538.81;109817;1249;69488;-64
2022/03/02 10:22:28;;;;;;;4.60;3.80;;;;;;;8.95;31.99;97539.05;109762;1250;60948;-64
2022/03/02 10:25:05;;;;;;;3.60;3.00;;;;;;;8.19;32.39;97529.89;109867;1250;60415;-64
2022/03/02 10:27:42;;;;;;;4.30;3.20;;;;;;;8.37;33.01;97523.23;109868;1250;72423;-64
2022/03/02 10:30:12;;;;;;;5.20;4.10;;;;;;;8.36;33.03;97517.55;109839;1249;67963;-63
2022/03/02 10:32:42;;;;;;;6.40;4.40;;;;;;;8.19;32.96;97508.73;109869;1250;69447;-63
2022/03/02 10:35:13;;;;;;;6.20;4.10;;;;;;;8.21;33.55;97504.96;109543;1250;60500;-63
2022/03/02 10:37:58;;;;;;;6.20;3.90;;;;;;;8.27;33.24;97495.54;109772;1250;60465;-64
2022/03/02 10:40:32;;;;;;;4.80;4.20;;;;;;;8.19;33.30;97491.50;109693;1250;71699;-62
2022/03/02 10:43:06;;;;;;;6.60;4.30;;;;;;;8.02;33.77;97485.64;109730;1250;68615;-62
2022/03/02 10:45:49;;;;;;;6.00;4.30;;;;;;;7.71;34.15;97481.74;109646;1250;67634;-61
2022/03/02 10:48:28;;;;;;;6.50;4.40;;;;;;;7.59;34.53;97479.70;109795;1250;60582;-63
2022/03/02 10:51:02;;;;;;;6.20;4.80;;;;;;;7.67;35.18;97474.20;109886;1249;60512;-62
2022/03/02 10:53:35;;;;;;;6.50;4.30;;;;;;;7.90;34.94;97470.56;109785;1250;72369;-64
2022/03/02 10:56:08;;;;;;;7.20;4.50;;;;;;;8.00;34.56;97463.52;109721;1250;68584;-62
2022/03/02 10:58:39;;;;;;;6.40;4.30;;;;;;;8.15;34.47;97461.04;109883;1249;68672;-65
2022/03/02 11:01:08;;;;;;;5.20;4.10;;;;;;;8.09;34.17;97457.77;109728;1250;60539;-63
2022/03/02 11:03:38;;;;;;;6.10;4.50;;;;;;;8.29;34.33;97451.71;109945;1250;60501;-65
2022/03/02 11:06:07;;;;;;;5.70;4.20;;;;;;;8.46;33.99;97447.83;109864;1250;73146;-65
2022/03/02 11:08:37;;;;;;;4.90;3.60;;;;;;;8.51;33.92;97448.20;109851;1250;67808;-65
2022/03/02 11:11:08;;;;;;;5.00;3.90;;;;;;;8.58;33.53;97439.94;109818;1250;68914;-65
2022/03/02 11:13:38;;;;;;;5.10;3.40;;;;;;;8.51;33.47;97437.27;109867;1250;60487;-62
2022/03/02 11:16:07;;;;;;;6.00;3.50;;;;;;;8.56;33.95;97438.17;109858;1250;60492;-63
2022/03/02 11:18:48;;;;;;;5.70;4.00;;;;;;;8.65;33.71;97434.08;109838;1250;72991;-63
2022/03/02 11:21:29;;;;;;;5.90;3.90;;;;;;;8.55;33.22;97431.59;109691;1250;67864;-62
2022/03/02 11:24:05;;;;;;;4.30;3.50;;;;;;;8.43;33.68;97432.54;109764;1250;69083;-63
2022/03/02 11:26:40;;;;;;;4.30;3.20;;;;;;;8.17;34.27;97427.77;109837;1250;60570;-62
2022/03/02 11:29:17;;;;;;;4.90;3.70;;;;;;;8.07;34.56;97427.67;109763;1250;60519;-63
2022/03/02 11:31:54;;;;;;;5.30;4.00;;;;;;;7.64;35.03;97419.58;109823;1250;72578;-63
2022/03/02 11:34:30;;;;;;;5.60;3.60;;;;;;;7.37;35.26;97413.95;109881;1250;68594;-62
2022/03/02 11:37:07;;;;;;;4.30;2.90;;;;;;;7.28;35.61;97411.71;109865;1249;69415;-63
2022/03/02 11:39:43;;;;;;;4.50;3.60;;;;;;;7.51;35.60;97404.59;109714;1250;60586;-63
2022/03/02 11:42:12;;;;;;;5.00;3.60;;;;;;;7.83;35.21;97400.04;109810;1250;60526;-64
2022/03/02 11:44:43;;;;;;;3.90;3.30;;;;;;;8.07;34.07;97398.34;109894;1250;72353;-62